Time;durP1;ratioP1;P1;durP2;ratioP2;P2;SDS_P1;SDS_P2;PMS_P1;PMS_P2;Temp;Humidity;BMP_temperature;BMP_pressure;BME280_temperature;BME280_humidity;BME280_pressure;Samples;Min_cycle;Max_cycle;Signal;HPM_P1;HPM_P2
2022/03/18 00:00:01;;;;;;;;;;;;;;;;;;5030611;28;1075;-68
2022/03/18 00:02:28;;;;;;;;;;;;;;;;;;5030042;28;1559;-68
2022/03/18 00:04:55;;;;;;;;;;;;;;;;;;5030214;28;1907;-69
2022/03/18 00:07:22;;;;;;;;;;;;;;;;;;5030261;28;799;-69
2022/03/18 00:09:49;;;;;;;;;;;;;;;;;;5030451;28;1142;-68
2022/03/18 00:12:15;;;;;;;;;;;;;;;;;;5030390;28;1358;-68
2022/03/18 00:14:42;;;;;;;;;;;;;;;;;;5030521;28;913;-68
2022/03/18 00:17:08;;;;;;;;;;;;;;;;;;5030171;28;1348;-68
2022/03/18 00:19:34;;;;;;;;;;;;;;;;;;5030409;28;842;-68
2022/03/18 00:22:01;;;;;;;;;;;;;;;;;;5030448;28;1399;-68
2022/03/18 00:24:27;;;;;;;;;;;;;;;;;;5030297;28;1973;-68
2022/03/18 00:26:55;;;;;;;;;;;;;;;;;;5030115;28;1141;-68
2022/03/18 00:29:21;;;;;;;;;;;;;;;;;;5030341;28;1218;-68
2022/03/18 00:31:47;;;;;;;;;;;;;;;;;;5030221;28;1397;-69
2022/03/18 00:34:13;;;;;;;;;;;;;;;;;;5030386;28;905;-68
2022/03/18 00:36:40;;;;;;;;;;;;;;;;;;5029810;28;906;-68
2022/03/18 00:39:06;;;;;;;;;;;;;;;;;;5030150;28;1137;-68
2022/03/18 00:41:32;;;;;;;;;;;;;;;;;;5030156;28;1263;-68
2022/03/18 00:44:00;;;;;;;;;;;;;;;;;;5030386;28;1083;-68
2022/03/18 00:46:26;;;;;;;;;;;;;;;;;;5031244;28;1989;-68
2022/03/18 00:52:04;;;;;;;;;;;;;;;;;;4992051;28;1410;-68
2022/03/18 00:54:30;;;;;;;;;;;;;;;;;;5028056;28;913;-68
2022/03/18 00:56:57;;;;;;;;;;;;;;;;;;5033751;28;1149;-69
2022/03/18 00:59:24;;;;;;;;;;;;;;;;;;5033831;28;790;-66
2022/03/18 01:01:52;;;;;;;;;;;;;;;;;;5033819;28;1315;-67
2022/03/18 01:04:18;;;;;;;;;;;;;;;;;;5033960;28;1967;-67
2022/03/18 01:06:45;;;;;;;;;;;;;;;;;;5033529;28;1157;-66
2022/03/18 01:09:11;;;;;;;;;;;;;;;;;;5033752;28;1131;-67
2022/03/18 01:11:37;;;;;;;;;;;;;;;;;;5033343;28;1283;-66
2022/03/18 01:14:03;;;;;;;;;;;;;;;;;;5033525;28;866;-67
2022/03/18 01:16:31;;;;;;;;;;;;;;;;;;5033145;28;1206;-66
2022/03/18 01:18:57;;;;;;;;;;;;;;;;;;5033344;28;1115;-67
2022/03/18 01:21:23;;;;;;;;;;;;;;;;;;5064167;22;3544;-67
2022/03/18 01:23:49;;;;;;;;;;;;;;;;;;5053053;28;1261;-67
2022/03/18 01:26:16;;;;;;;;;;;;;;;;;;5052731;28;1918;-67
2022/03/18 01:28:42;;;;;;;;;;;;;;;;;;5053072;28;890;-67
2022/03/18 01:31:08;;;;;;;;;;;;;;;;;;5053120;28;1383;-68
2022/03/18 01:33:37;;;;;;;;;;;;;;;;;;5053243;28;1028;-68
2022/03/18 01:36:03;;;;;;;;;;;;;;;;;;5053011;28;1079;-68
2022/03/18 01:38:29;;;;;;;;;;;;;;;;;;5052787;28;1196;-67
2022/03/18 01:40:55;;;;;;;;;;;;;;;;;;5052333;28;1413;-67
2022/03/18 01:43:22;;;;;;;;;;;;;;;;;;5052662;28;1109;-67
2022/03/18 01:45:50;;;;;;;;;;;;;;;;;;5052032;28;1969;-67
2022/03/18 01:48:17;;;;;;;;;;;;;;;;;;5048481;28;1233;-66
2022/03/18 01:50:45;;;;;;;;;;;;;;;;;;5052001;28;1397;-66
2022/03/18 01:53:11;;;;;;;;;;;;;;;;;;5052236;28;1299;-66
2022/03/18 01:55:37;;;;;;;;;;;;;;;;;;5052702;28;920;-68
2022/03/18 01:58:03;;;;;;;;;;;;;;;;;;5052184;28;1086;-68
2022/03/18 02:00:30;;;;;;;;;;;;;;;;;;5052405;28;1495;-68
2022/03/18 02:02:57;;;;;;;;;;;;;;;;;;5052380;28;1091;-65
2022/03/18 02:05:24;;;;;;;;;;;;;;;;;;5052062;28;1910;-67
2022/03/18 02:07:51;;;;;;;;;;;;;;;;;;5051717;28;1315;-68
2022/03/18 02:10:17;;;;;;;;;;;;;;;;;;5052061;28;1475;-67
2022/03/18 02:12:44;;;;;;;;;;;;;;;;;;5052716;28;905;-67
2022/03/18 02:15:10;;;;;;;;;;;;;;;;;;5052431;28;1078;-67
2022/03/18 02:17:37;;;;;;;;;;;;;;;;;;5052118;28;762;-67
2022/03/18 02:20:03;;;;;;;;;;;;;;;;;;5052025;28;1369;-67
2022/03/18 02:22:33;;;;;;;;;;;;;;;;;;5052220;28;1138;-67
2022/03/18 02:24:59;;;;;;;;;;;;;;;;;;5052155;28;1918;-67
2022/03/18 02:27:26;;;;;;;;;;;;;;;;;;5050982;28;1110;-67
2022/03/18 02:29:52;;;;;;;;;;;;;;;;;;5034038;28;1451;-67
2022/03/18 02:32:18;;;;;;;;;;;;;;;;;;5051781;28;905;-67
2022/03/18 02:34:44;;;;;;;;;;;;;;;;;;5052105;28;893;-67
2022/03/18 02:37:11;;;;;;;;;;;;;;;;;;5033743;28;1554;-68
2022/03/18 02:39:39;;;;;;;;;;;;;;;;;;5051709;28;940;-67
2022/03/18 02:42:05;;;;;;;;;;;;;;;;;;5051875;28;1070;-67
2022/03/18 02:44:32;;;;;;;;;;;;;;;;;;5051735;28;941;-67
2022/03/18 02:46:59;;;;;;;;;;;;;;;;;;5051283;28;1985;-68
2022/03/18 02:49:25;;;;;;;;;;;;;;;;;;5051735;28;1079;-68
2022/03/18 02:51:52;;;;;;;;;;;;;;;;;;5051575;28;1402;-68
2022/03/18 02:54:18;;;;;;;;;;;;;;;;;;5051597;28;1130;-68
2022/03/18 02:56:45;;;;;;;;;;;;;;;;;;5051710;28;767;-68
2022/03/18 02:59:12;;;;;;;;;;;;;;;;;;5051533;28;1013;-68
2022/03/18 03:01:38;;;;;;;;;;;;;;;;;;5051328;28;1394;-67
2022/03/18 03:04:04;;;;;;;;;;;;;;;;;;5051452;28;952;-68
2022/03/18 03:09:16;;;;;;;;;;;;;;;;;;5050790;28;1064;-69
2022/03/18 03:11:42;;;;;;;;;;;;;;;;;;5051231;28;1318;-68
2022/03/18 03:14:10;;;;;;;;;;;;;;;;;;5051333;28;909;-68
2022/03/18 03:16:36;;;;;;;;;;;;;;;;;;5050853;28;1083;-68
2022/03/18 03:19:03;;;;;;;;;;;;;;;;;;5050775;28;842;-68
2022/03/18 03:21:29;;;;;;;;;;;;;;;;;;5051572;28;1324;-69
2022/03/18 03:23:56;;;;;;;;;;;;;;;;;;5033566;28;1258;-68
2022/03/18 03:26:22;;;;;;;;;;;;;;;;;;5050725;28;1926;-68
2022/03/18 03:28:48;;;;;;;;;;;;;;;;;;5051155;28;1126;-68
2022/03/18 03:31:16;;;;;;;;;;;;;;;;;;5051043;28;1348;-68
2022/03/18 03:33:42;;;;;;;;;;;;;;;;;;5048048;28;2015;-69
2022/03/18 03:36:09;;;;;;;;;;;;;;;;;;5049787;28;1442;-68
2022/03/18 03:38:35;;;;;;;;;;;;;;;;;;5050333;28;1177;-68
2022/03/18 03:41:02;;;;;;;;;;;;;;;;;;5050711;28;1316;-68
2022/03/18 03:43:28;;;;;;;;;;;;;;;;;;5050756;28;1142;-67
2022/03/18 03:45:54;;;;;;;;;;;;;;;;;;5050577;28;1914;-68
2022/03/18 03:48:22;;;;;;;;;;;;;;;;;;5050703;28;1012;-69
2022/03/18 03:50:48;;;;;;;;;;;;;;;;;;5050642;28;1315;-68
2022/03/18 03:53:14;;;;;;;;;;;;;;;;;;5050564;28;960;-68
2022/03/18 03:55:40;;;;;;;;;;;;;;;;;;5050497;28;1118;-67
2022/03/18 03:58:07;;;;;;;;;;;;;;;;;;5049935;28;992;-68
2022/03/18 04:00:33;;;;;;;;;;;;;;;;;;5050540;28;1306;-68
2022/03/18 04:02:59;;;;;;;;;;;;;;;;;;5050459;28;1091;-68
2022/03/18 04:05:27;;;;;;;;;;;;;;;;;;5050304;28;1910;-68
2022/03/18 04:07:53;;;;;;;;;;;;;;;;;;5050525;28;1511;-68
2022/03/18 04:10:20;;;;;;;;;;;;;;;;;;5050404;28;1376;-68
2022/03/18 04:12:46;;;;;;;;;;;;;;;;;;5050433;28;1102;-68
2022/03/18 04:15:12;;;;;;;;;;;;;;;;;;5050118;28;898;-68
2022/03/18 04:17:39;;;;;;;;;;;;;;;;;;5050118;28;1142;-68
2022/03/18 04:20:06;;;;;;;;;;;;;;;;;;5050269;28;1312;-67
2022/03/18 04:22:33;;;;;;;;;;;;;;;;;;5053944;28;822;-67
2022/03/18 04:24:59;;;;;;;;;;;;;;;;;;5054797;28;1141;-67
2022/03/18 04:27:26;;;;;;;;;;;;;;;;;;5054179;28;1973;-67
2022/03/18 04:29:53;;;;;;;;;;;;;;;;;;5054602;28;1306;-67
2022/03/18 04:32:19;;;;;;;;;;;;;;;;;;5054347;28;1023;-67
2022/03/18 04:34:45;;;;;;;;;;;;;;;;;;5054021;28;1086;-67
2022/03/18 04:37:11;;;;;;;;;;;;;;;;;;5053777;28;933;-67
2022/03/18 04:39:39;;;;;;;;;;;;;;;;;;5054142;28;1153;-67
2022/03/18 04:42:05;;;;;;;;;;;;;;;;;;5054009;28;1358;-68
2022/03/18 04:44:31;;;;;;;;;;;;;;;;;;5054263;28;801;-66
2022/03/18 04:46:57;;;;;;;;;;;;;;;;;;5053376;28;1906;-67
2022/03/18 04:49:23;;;;;;;;;;;;;;;;;;5053929;28;798;-67
2022/03/18 04:51:50;;;;;;;;;;;;;;;;;;5053806;28;1298;-67
2022/03/18 04:54:16;;;;;;;;;;;;;;;;;;5053711;28;960;-67
2022/03/18 04:59:27;;;;;;;;;;;;;;;;;;5053942;28;1036;-67
2022/03/18 05:01:53;;;;;;;;;;;;;;;;;;5035979;28;1334;-67
2022/03/18 05:04:20;;;;;;;;;;;;;;;;;;5053865;28;1158;-66
2022/03/18 05:06:46;;;;;;;;;;;;;;;;;;5053464;28;1914;-67
2022/03/18 05:09:13;;;;;;;;;;;;;;;;;;5053736;28;1123;-67
2022/03/18 05:11:39;;;;;;;;;;;;;;;;;;5053388;28;1372;-66
2022/03/18 05:14:06;;;;;;;;;;;;;;;;;;5053453;28;1146;-67
2022/03/18 05:16:33;;;;;;;;;;;;;;;;;;5053457;28;1067;-67
2022/03/18 05:18:59;;;;;;;;;;;;;;;;;;5053507;28;1071;-66
2022/03/18 05:21:25;;;;;;;;;;;;;;;;;;5053326;28;1380;-67
2022/03/18 05:23:52;;;;;;;;;;;;;;;;;;5053347;28;792;-67
2022/03/18 05:26:19;;;;;;;;;;;;;;;;;;5053069;28;1914;-67
2022/03/18 05:28:46;;;;;;;;;;;;;;;;;;5053364;28;841;-67
2022/03/18 05:31:13;;;;;;;;;;;;;;;;;;5052798;28;1297;-68
2022/03/18 05:33:39;;;;;;;;;;;;;;;;;;5052755;28;913;-66
2022/03/18 05:36:06;;;;;;;;;;;;;;;;;;5054463;28;1586;-64
2022/03/18 05:38:33;;;;;;;;;;;;;;;;;;5053020;28;1408;-69
2022/03/18 05:40:59;;;;;;;;;;;;;;;;;;5052984;28;1321;-68
2022/03/18 05:43:25;;;;;;;;;;;;;;;;;;5051054;28;1995;-68
2022/03/18 05:45:52;;;;;;;;;;;;;;;;;;5051870;28;1979;-67
2022/03/18 05:48:19;;;;;;;;;;;;;;;;;;5052319;28;1157;-67
2022/03/18 05:50:45;;;;;;;;;;;;;;;;;;5052896;28;1303;-67
2022/03/18 05:53:12;;;;;;;;;;;;;;;;;;5052202;28;1603;-66
2022/03/18 05:58:22;;;;;;;;;;;;;;;;;;5011852;28;1114;-66
2022/03/18 06:00:48;;;;;;;;;;;;;;;;;;5034307;28;1649;-66
2022/03/18 06:03:14;;;;;;;;;;;;;;;;;;5032626;28;1143;-67
2022/03/18 06:05:42;;;;;;;;;;;;;;;;;;5032510;28;885;-66
2022/03/18 06:13:36;;;;;;;;;;;;;;;;;;5032573;28;965;-67
2022/03/18 06:16:02;;;;;;;;;;;;;;;;;;5048401;28;1559;-66
2022/03/18 06:18:29;;;;;;;;;;;;;;;;;;5051857;28;1000;-66
2022/03/18 06:20:57;;;;;;;;;;;;;;;;;;5048773;28;1566;-67
2022/03/18 06:23:23;;;;;;;;;;;;;;;;;;5030057;28;1083;-67
2022/03/18 06:25:49;;;;;;;;;;;;;;;;;;5049578;28;1521;-67
2022/03/18 06:28:16;;;;;;;;;;;;;;;;;;5031933;28;2027;-67
2022/03/18 06:30:42;;;;;;;;;;;;;;;;;;5049321;28;1555;-67
2022/03/18 06:33:09;;;;;;;;;;;;;;;;;;5049988;28;814;-67
2022/03/18 06:35:35;;;;;;;;;;;;;;;;;;5049796;28;1681;-67
2022/03/18 06:38:02;;;;;;;;;;;;;;;;;;5049620;28;1027;-67
2022/03/18 06:40:29;;;;;;;;;;;;;;;;;;5049260;28;1455;-67
2022/03/18 06:42:55;;;;;;;;;;;;;;;;;;5051004;28;1645;-67
2022/03/18 06:45:21;;;;;;;;;;;;;;;;;;5027437;28;1269;-67
2022/03/18 06:47:48;;;;;;;;;;;;;;;;;;5051357;28;1918;-66
2022/03/18 06:50:14;;;;;;;;;;;;;;;;;;5050189;28;1494;-67
2022/03/18 06:52:40;;;;;;;;;;;;;;;;;;5051319;28;1263;-67
2022/03/18 06:55:09;;;;;;;;;;;;;;;;;;5050937;28;1299;-67
2022/03/18 06:57:35;;;;;;;;;;;;;;;;;;5051251;28;1082;-66
2022/03/18 07:00:01;;;;;;;;;;;;;;;;;;5052126;28;1633;-67
2022/03/18 07:02:28;;;;;;;;;;;;;;;;;;5051683;28;1047;-67
2022/03/18 07:04:55;;;;;;;;;;;;;;;;;;5050608;28;1574;-67
2022/03/18 07:07:21;;;;;;;;;;;;;;;;;;5050875;28;1979;-66
2022/03/18 07:09:47;;;;;;;;;;;;;;;;;;5050663;28;1349;-67
2022/03/18 07:12:16;;;;;;;;;;;;;;;;;;5051033;28;1154;-67
2022/03/18 07:14:42;;;;;;;;;;;;;;;;;;5046905;28;1677;-68
2022/03/18 07:19:52;;;;;;;;;;;;;;;;;;5050766;28;1626;-68
2022/03/18 07:22:18;;;;;;;;;;;;;;;;;;5050219;28;1157;-67
2022/03/18 07:24:45;;;;;;;;;;;;;;;;;;5050748;28;1631;-68
2022/03/18 07:27:11;;;;;;;;;;;;;;;;;;5049813;28;1922;-68
2022/03/18 07:29:41;;;;;;;;;;;;;;;;;;5065195;22;3726;-67
2022/03/18 07:32:07;;;;;;;;;;;;;;;;;;5048108;28;1684;-69
2022/03/18 07:34:33;;;;;;;;;;;;;;;;;;5044366;28;1301;-67
2022/03/18 07:37:00;;;;;;;;;;;;;;;;;;5048583;28;1034;-69
2022/03/18 07:39:26;;;;;;;;;;;;;;;;;;5046379;28;1420;-66
2022/03/18 07:41:52;;;;;;;;;;;;;;;;;;5047900;28;1146;-69
2022/03/18 07:44:18;;;;;;;;;;;;;;;;;;5050470;28;1543;-69
2022/03/18 07:46:46;;;;;;;;;;;;;;;;;;5049687;28;1981;-69
2022/03/18 07:49:12;;;;;;;;;;;;;;;;;;5050034;28;1333;-68
2022/03/18 07:51:38;;;;;;;;;;;;;;;;;;5050079;28;1301;-69
2022/03/18 07:54:04;;;;;;;;;;;;;;;;;;5031566;28;1414;-69
2022/03/18 07:56:31;;;;;;;;;;;;;;;;;;5049840;28;1098;-69
2022/03/18 07:58:57;;;;;;;;;;;;;;;;;;5049293;28;1348;-69
2022/03/18 08:01:23;;;;;;;;;;;;;;;;;;5049611;28;1578;-68
2022/03/18 08:03:51;;;;;;;;;;;;;;;;;;5048897;28;1586;-69
2022/03/18 08:06:17;;;;;;;;;;;;;;;;;;5049038;28;1666;-69
2022/03/18 08:08:43;;;;;;;;;;;;;;;;;;5049984;28;1972;-69
2022/03/18 08:11:10;;;;;;;;;;;;;;;;;;5049678;28;1591;-69
2022/03/18 08:13:36;;;;;;;;;;;;;;;;;;5048151;28;1416;-69
2022/03/18 08:16:02;;;;;;;;;;;;;;;;;;5049071;28;1649;-69
2022/03/18 08:18:28;;;;;;;;;;;;;;;;;;5048727;28;1566;-69
2022/03/18 08:20:56;;;;;;;;;;;;;;;;;;5029559;28;1503;-69
2022/03/18 08:23:23;;;;;;;;;;;;;;;;;;5048329;28;996;-69
2022/03/18 08:25:49;;;;;;;;;;;;;;;;;;5045953;28;1266;-66
2022/03/18 08:28:15;;;;;;;;;;;;;;;;;;5048065;28;1970;-69
2022/03/18 08:30:41;;;;;;;;;;;;;;;;;;5048506;28;1676;-69
2022/03/18 08:33:08;;;;;;;;;;;;;;;;;;5041837;28;1637;-69
2022/03/18 08:35:36;;;;;;;;;;;;;;;;;;5049212;28;1432;-69
2022/03/18 08:38:07;;;;;;;;;;;;;;;;;;5053329;28;1155;-69
2022/03/18 08:40:34;;;;;;;;;;;;;;;;;;5049149;28;1394;-70
2022/03/18 08:43:00;;;;;;;;;;;;;;;;;;5049510;28;1650;-68
2022/03/18 08:45:27;;;;;;;;;;;;;;;;;;5049039;28;1579;-70
2022/03/18 08:47:53;;;;;;;;;;;;;;;;;;5049523;28;1989;-69
2022/03/18 08:50:21;;;;;;;;;;;;;;;;;;5049299;28;1491;-69
2022/03/18 08:52:47;;;;;;;;;;;;;;;;;;5049339;28;1067;-69
2022/03/18 08:55:15;;;;;;;;;;;;;;;;;;5049885;28;1157;-69
2022/03/18 08:57:41;;;;;;;;;;;;;;;;;;5049050;28;1618;-69
2022/03/18 09:00:08;;;;;;;;;;;;;;;;;;5049335;28;1658;-69
2022/03/18 09:02:35;;;;;;;;;;;;;;;;;;5049465;28;1583;-70
2022/03/18 09:05:01;;;;;;;;;;;;;;;;;;5049867;28;802;-69
2022/03/18 09:07:28;;;;;;;;;;;;;;;;;;5050598;28;1914;-70
2022/03/18 09:09:54;;;;;;;;;;;;;;;;;;5053358;28;1473;-69
2022/03/18 09:12:21;;;;;;;;;;;;;;;;;;5052301;28;1653;-69
2022/03/18 09:14:48;;;;;;;;;;;;;;;;;;5052655;28;1579;-68
2022/03/18 09:17:14;;;;;;;;;;;;;;;;;;5052458;28;1111;-69
2022/03/18 09:19:40;;;;;;;;;;;;;;;;;;5052314;28;1357;-70
2022/03/18 09:22:07;;;;;;;;;;;;;;;;;;5053037;28;1040;-69
2022/03/18 09:24:33;;;;;;;;;;;;;;;;;;5052524;28;1562;-69
2022/03/18 09:26:59;;;;;;;;;;;;;;;;;;5052661;28;1981;-70
2022/03/18 09:29:27;;;;;;;;;;;;;;;;;;5052765;28;1696;-69
2022/03/18 09:31:53;;;;;;;;;;;;;;;;;;5052133;28;1321;-71
2022/03/18 09:34:24;;;;;;;;;;;;;;;;;;5049043;28;2086;-68
2022/03/18 09:36:50;;;;;;;;;;;;;;;;;;5048160;28;1083;-68
2022/03/18 09:39:16;;;;;;;;;;;;;;;;;;5055791;28;1593;-69
2022/03/18 09:41:42;;;;;;;;;;;;;;;;;;5052626;28;1428;-69
2022/03/18 09:44:10;;;;;;;;;;;;;;;;;;5052979;28;898;-68
2022/03/18 09:46:37;;;;;;;;;;;;;;;;;;5051128;28;1392;-69
2022/03/18 09:49:06;;;;;;;;;;;;;;;;;;5051725;28;1987;-69
2022/03/18 09:51:33;;;;;;;;;;;;;;;;;;5052299;28;1359;-68
2022/03/18 09:53:59;;;;;;;;;;;;;;;;;;5052177;28;2087;-69
2022/03/18 09:56:25;;;;;;;;;;;;;;;;;;5051013;28;1626;-68
2022/03/18 09:58:51;;;;;;;;;;;;;;;;;;5051786;28;1365;-68
2022/03/18 10:01:18;;;;;;;;;;;;;;;;;;5052160;28;1408;-69
2022/03/18 10:03:45;;;;;;;;;;;;;;;;;;5051910;28;1618;-69
2022/03/18 10:06:12;;;;;;;;;;;;;;;;;;5052261;28;1080;-68
2022/03/18 10:08:48;;;;;;;;;;;;;;;;;;5034052;28;1982;-69
2022/03/18 10:11:15;;;;;;;;;;;;;;;;;;5051137;28;1554;-68
2022/03/18 10:13:49;;;;;;;;;;;;;;;;;;5051626;28;1634;-69
2022/03/18 10:16:17;;;;;;;;;;;;;;;;;;5051546;28;1253;-69
2022/03/18 10:18:49;;;;;;;;;;;;;;;;;;5051855;28;1594;-69
2022/03/18 10:21:15;;;;;;;;;;;;;;;;;;5052047;28;1321;-69
2022/03/18 10:23:42;;;;;;;;;;;;;;;;;;5055661;28;1486;-69
2022/03/18 10:26:08;;;;;;;;;;;;;;;;;;5051724;28;1086;-68
2022/03/18 10:28:36;;;;;;;;;;;;;;;;;;5051500;28;1910;-69
2022/03/18 10:31:14;;;;;;;;;;;;;;;;;;5050768;28;1438;-69
2022/03/18 10:39:24;;;;;;;;;;;;;;;;;;5051228;28;1551;-69
2022/03/18 10:41:50;;;;;;;;;;;;;;;;;;5033669;28;1579;-70
2022/03/18 10:44:17;;;;;;;;;;;;;;;;;;5051264;28;1075;-69
2022/03/18 10:46:43;;;;;;;;;;;;;;;;;;5051170;28;1594;-70
2022/03/18 10:49:11;;;;;;;;;;;;;;;;;;5051121;28;1965;-70
2022/03/18 10:51:38;;;;;;;;;;;;;;;;;;5051024;28;1674;-70
2022/03/18 10:54:05;;;;;;;;;;;;;;;;;;5051543;28;1111;-70
2022/03/18 10:56:31;;;;;;;;;;;;;;;;;;5033012;28;1578;-69
2022/03/18 10:58:58;;;;;;;;;;;;;;;;;;5050553;28;1571;-69
2022/03/18 11:01:24;;;;;;;;;;;;;;;;;;5038768;28;1433;-69
2022/03/18 11:03:50;;;;;;;;;;;;;;;;;;5058187;28;1228;-69
2022/03/18 11:06:18;;;;;;;;;;;;;;;;;;5055189;28;1528;-69
2022/03/18 11:08:45;;;;;;;;;;;;;;;;;;5051358;28;1918;-69
2022/03/18 11:11:14;;;;;;;;;;;;;;;;;;5050647;28;1422;-69
2022/03/18 11:13:43;;;;;;;;;;;;;;;;;;5050893;28;1506;-69
2022/03/18 11:16:10;;;;;;;;;;;;;;;;;;5050118;28;1307;-69
2022/03/18 11:18:36;;;;;;;;;;;;;;;;;;5054637;28;1478;-69
2022/03/18 11:21:03;;;;;;;;;;;;;;;;;;5050642;28;1550;-69
2022/03/18 11:23:30;;;;;;;;;;;;;;;;;;5050754;28;984;-69
2022/03/18 11:25:57;;;;;;;;;;;;;;;;;;5050532;28;1615;-69
2022/03/18 11:28:23;;;;;;;;;;;;;;;;;;5049764;28;2006;-69
2022/03/18 11:30:50;;;;;;;;;;;;;;;;;;5049989;28;1376;-68
2022/03/18 11:33:20;;;;;;;;;;;;;;;;;;5050646;28;1645;-69
2022/03/18 11:36:06;;;;;;;;;;;;;;;;;;5050060;28;1359;-69
2022/03/18 11:38:47;;;;;;;;;;;;;;;;;;5049825;28;1356;-68
2022/03/18 11:41:14;;;;;;;;;;;;;;;;;;5051730;28;1487;-69
2022/03/18 11:43:48;;;;;;;;;;;;;;;;;;5050322;28;1384;-70
2022/03/18 11:46:23;;;;;;;;;;;;;;;;;;5050119;28;1364;-70
2022/03/18 11:48:50;;;;;;;;;;;;;;;;;;5050322;28;1914;-70
2022/03/18 11:51:23;;;;;;;;;;;;;;;;;;5049922;28;1415;-70
2022/03/18 11:53:51;;;;;;;;;;;;;;;;;;5050364;28;1067;-69
2022/03/18 11:56:21;;;;;;;;;;;;;;;;;;5048552;28;1277;-69
2022/03/18 11:58:48;;;;;;;;;;;;;;;;;;5046678;28;1071;-69
2022/03/18 12:01:33;;;;;;;;;;;;;;;;;;5049288;28;1614;-69
2022/03/18 12:03:59;;;;;;;;;;;;;;;;;;5050345;28;1137;-70
2022/03/18 12:06:25;;;;;;;;;;;;;;;;;;5049294;28;1559;-69
2022/03/18 12:08:55;;;;;;;;;;;;;;;;;;5049982;28;1989;-70
2022/03/18 12:11:25;;;;;;;;;;;;;;;;;;5046886;28;1515;-69
2022/03/18 12:13:51;;;;;;;;;;;;;;;;;;5049726;28;1563;-69
2022/03/18 12:16:18;;;;;;;;;;;;;;;;;;5049651;28;942;-69
2022/03/18 12:18:45;;;;;;;;;;;;;;;;;;5049543;28;1403;-69
2022/03/18 12:21:12;;;;;;;;;;;;;;;;;;5049682;28;1558;-69
2022/03/18 12:23:38;;;;;;;;;;;;;;;;;;5049667;28;1404;-68
2022/03/18 12:26:05;;;;;;;;;;;;;;;;;;5049773;28;1432;-69
2022/03/18 12:28:45;;;;;;;;;;;;;;;;;;5049648;28;1910;-69
2022/03/18 12:31:14;;;;;;;;;;;;;;;;;;5049039;28;1459;-69
2022/03/18 12:33:40;;;;;;;;;;;;;;;;;;5047942;28;894;-69
2022/03/18 12:36:07;;;;;;;;;;;;;;;;;;5042555;28;1298;-68
2022/03/18 12:38:33;;;;;;;;;;;;;;;;;;5049499;28;1780;-69
2022/03/18 12:40:59;;;;;;;;;;;;;;;;;;5049213;28;1415;-69
2022/03/18 12:43:26;;;;;;;;;;;;;;;;;;5052486;28;894;-69
2022/03/18 12:45:55;;;;;;;;;;;;;;;;;;5053459;28;1567;-69
2022/03/18 12:48:21;;;;;;;;;;;;;;;;;;5053251;28;1969;-69
2022/03/18 12:50:48;;;;;;;;;;;;;;;;;;5053535;28;1618;-70
2022/03/18 12:53:15;;;;;;;;;;;;;;;;;;5053058;28;1666;-70
2022/03/18 12:55:42;;;;;;;;;;;;;;;;;;5053035;28;1717;-69
2022/03/18 12:58:38;;;;;;;;;;;;;;;;;;5025479;28;1504;-69
2022/03/18 13:01:06;;;;;;;;;;;;;;;;;;5049579;28;1390;-69
2022/03/18 13:03:34;;;;;;;;;;;;;;;;;;5047660;28;1499;-69
2022/03/18 13:06:04;;;;;;;;;;;;;;;;;;5054311;28;1338;-69
2022/03/18 13:08:33;;;;;;;;;;;;;;;;;;5055794;28;1922;-69
2022/03/18 13:11:00;;;;;;;;;;;;;;;;;;5052836;28;1409;-70
2022/03/18 13:13:27;;;;;;;;;;;;;;;;;;5052823;28;1310;-69
2022/03/18 13:15:58;;;;;;;;;;;;;;;;;;5053600;28;1079;-69
2022/03/18 13:18:26;;;;;;;;;;;;;;;;;;5052971;28;1173;-69
2022/03/18 13:20:56;;;;;;;;;;;;;;;;;;5053543;28;1341;-69
2022/03/18 13:23:22;;;;;;;;;;;;;;;;;;5053237;28;805;-69
2022/03/18 13:25:48;;;;;;;;;;;;;;;;;;5053627;28;1082;-69
2022/03/18 13:28:14;;;;;;;;;;;;;;;;;;5053124;28;1973;-70
2022/03/18 13:33:26;;;;;;;;;;;;;;;;;;5070264;22;3507;-68
2022/03/18 13:35:54;;;;;;;;;;;;;;;;;;5051067;28;1887;-68
2022/03/18 13:38:21;;;;;;;;;;;;;;;;;;5051765;28;1914;-68
2022/03/18 13:40:54;;;;;;;;;;;;;;;;;;5053102;28;790;-68
2022/03/18 13:43:23;;;;;;;;;;;;;;;;;;5052767;28;1407;-68
2022/03/18 13:45:49;;;;;;;;;;;;;;;;;;5053101;28;859;-68
2022/03/18 13:48:26;;;;;;;;;;;;;;;;;;5052725;28;1079;-68
2022/03/18 13:50:53;;;;;;;;;;;;;;;;;;5053685;28;1095;-68
2022/03/18 13:53:20;;;;;;;;;;;;;;;;;;5052339;28;1325;-68
2022/03/18 13:55:46;;;;;;;;;;;;;;;;;;5053094;28;1059;-68
2022/03/18 13:58:13;;;;;;;;;;;;;;;;;;5052316;28;841;-68
2022/03/18 14:00:39;;;;;;;;;;;;;;;;;;5052978;28;1906;-68
2022/03/18 14:03:06;;;;;;;;;;;;;;;;;;5052413;28;1361;-68
2022/03/18 14:05:34;;;;;;;;;;;;;;;;;;5052332;28;1015;-67
2022/03/18 14:08:01;;;;;;;;;;;;;;;;;;5052239;28;1031;-68
2022/03/18 14:10:37;;;;;;;;;;;;;;;;;;5051651;28;1535;-68
2022/03/18 14:13:04;;;;;;;;;;;;;;;;;;5052404;28;1328;-68
2022/03/18 14:15:31;;;;;;;;;;;;;;;;;;5052303;28;1067;-68
2022/03/18 14:17:58;;;;;;;;;;;;;;;;;;5052112;28;1075;-68
2022/03/18 14:20:26;;;;;;;;;;;;;;;;;;5051965;28;1918;-68
2022/03/18 14:22:54;;;;;;;;;;;;;;;;;;5033823;28;1571;-68
2022/03/18 14:25:21;;;;;;;;;;;;;;;;;;5055724;28;1598;-69
2022/03/18 14:27:48;;;;;;;;;;;;;;;;;;5051550;28;1279;-68
2022/03/18 14:30:16;;;;;;;;;;;;;;;;;;5051496;28;1744;-69
2022/03/18 14:32:43;;;;;;;;;;;;;;;;;;5051627;28;1598;-68
2022/03/18 14:35:09;;;;;;;;;;;;;;;;;;5051583;28;1416;-68
2022/03/18 14:37:35;;;;;;;;;;;;;;;;;;5051068;28;1670;-69
2022/03/18 14:40:03;;;;;;;;;;;;;;;;;;5051586;28;1910;-69
2022/03/18 14:42:30;;;;;;;;;;;;;;;;;;5051158;28;1539;-69
2022/03/18 14:44:57;;;;;;;;;;;;;;;;;;5050932;28;1602;-69
2022/03/18 14:47:23;;;;;;;;;;;;;;;;;;5054311;28;1554;-69
2022/03/18 14:49:49;;;;;;;;;;;;;;;;;;5051784;28;1517;-69
2022/03/18 14:52:15;;;;;;;;;;;;;;;;;;5051111;28;1407;-69
2022/03/18 14:57:26;;;;;;;;;;;;;;;;;;5050880;28;1597;-70
2022/03/18 14:59:54;;;;;;;;;;;;;;;;;;5051208;28;1914;-69
2022/03/18 15:02:20;;;;;;;;;;;;;;;;;;5051195;28;1649;-69
2022/03/18 15:04:46;;;;;;;;;;;;;;;;;;5049992;28;1634;-69
2022/03/18 15:07:12;;;;;;;;;;;;;;;;;;5050587;28;1420;-69
2022/03/18 15:09:39;;;;;;;;;;;;;;;;;;5052077;28;1091;-69
2022/03/18 15:12:05;;;;;;;;;;;;;;;;;;5049876;28;1630;-69
2022/03/18 15:14:33;;;;;;;;;;;;;;;;;;5026275;28;1567;-69
2022/03/18 15:16:59;;;;;;;;;;;;;;;;;;5029060;28;1024;-69
2022/03/18 15:19:25;;;;;;;;;;;;;;;;;;5044929;28;1983;-69
2022/03/18 15:21:52;;;;;;;;;;;;;;;;;;5049033;28;1095;-69
2022/03/18 15:24:18;;;;;;;;;;;;;;;;;;5048268;28;1563;-69
2022/03/18 15:26:44;;;;;;;;;;;;;;;;;;5046408;28;1671;-69
2022/03/18 15:29:11;;;;;;;;;;;;;;;;;;5048795;28;1594;-68
2022/03/18 15:31:39;;;;;;;;;;;;;;;;;;5048477;28;1487;-69
2022/03/18 15:34:06;;;;;;;;;;;;;;;;;;5048713;28;1554;-69
2022/03/18 15:36:32;;;;;;;;;;;;;;;;;;5048258;28;1559;-69
2022/03/18 15:38:58;;;;;;;;;;;;;;;;;;5049122;28;1906;-68
2022/03/18 15:41:25;;;;;;;;;;;;;;;;;;5047587;28;1535;-69
2022/03/18 15:43:51;;;;;;;;;;;;;;;;;;5050845;28;1666;-69
2022/03/18 15:46:19;;;;;;;;;;;;;;;;;;5052254;28;885;-69
2022/03/18 15:48:46;;;;;;;;;;;;;;;;;;5051396;28;1537;-69
2022/03/18 15:51:13;;;;;;;;;;;;;;;;;;5050597;28;1590;-69
2022/03/18 15:53:39;;;;;;;;;;;;;;;;;;5051804;28;1724;-69
2022/03/18 15:56:07;;;;;;;;;;;;;;;;;;5051512;28;1583;-68
2022/03/18 15:58:33;;;;;;;;;;;;;;;;;;5047075;28;2141;-69
2022/03/18 16:00:59;;;;;;;;;;;;;;;;;;5045074;28;1918;-69
2022/03/18 16:03:25;;;;;;;;;;;;;;;;;;5048268;28;1351;-69
2022/03/18 16:05:53;;;;;;;;;;;;;;;;;;5048206;28;1352;-68
2022/03/18 16:08:20;;;;;;;;;;;;;;;;;;5049994;28;1382;-68
2022/03/18 16:10:47;;;;;;;;;;;;;;;;;;5048360;28;932;-68
2022/03/18 16:13:13;;;;;;;;;;;;;;;;;;5046874;28;1444;-68
2022/03/18 16:15:39;;;;;;;;;;;;;;;;;;5049007;28;1669;-68
2022/03/18 16:18:06;;;;;;;;;;;;;;;;;;5049483;28;1594;-68
2022/03/18 16:20:33;;;;;;;;;;;;;;;;;;5049544;28;1926;-68
2022/03/18 16:23:01;;;;;;;;;;;;;;;;;;5049934;28;1658;-68
2022/03/18 16:25:27;;;;;;;;;;;;;;;;;;5032451;28;1115;-68
2022/03/18 16:27:53;;;;;;;;;;;;;;;;;;5048712;28;1571;-68
2022/03/18 16:30:20;;;;;;;;;;;;;;;;;;5049304;28;1581;-68
2022/03/18 16:32:46;;;;;;;;;;;;;;;;;;5048038;28;1535;-68
2022/03/18 16:35:14;;;;;;;;;;;;;;;;;;5048710;28;861;-68
2022/03/18 16:37:41;;;;;;;;;;;;;;;;;;5047273;28;1067;-68
2022/03/18 16:40:09;;;;;;;;;;;;;;;;;;5048308;28;1930;-68
2022/03/18 16:42:36;;;;;;;;;;;;;;;;;;5048330;28;1362;-68
2022/03/18 16:45:03;;;;;;;;;;;;;;;;;;5048347;28;973;-68
2022/03/18 16:50:14;;;;;;;;;;;;;;;;;;5048730;28;888;-68
2022/03/18 16:52:40;;;;;;;;;;;;;;;;;;5049922;28;1299;-68
2022/03/18 16:55:07;;;;;;;;;;;;;;;;;;5049845;28;1011;-68
2022/03/18 16:57:34;;;;;;;;;;;;;;;;;;5049753;28;1079;-69
2022/03/18 17:00:01;;;;;;;;;;;;;;;;;;5049821;28;1922;-68
2022/03/18 17:02:28;;;;;;;;;;;;;;;;;;5049218;28;1309;-68
2022/03/18 17:04:54;;;;;;;;;;;;;;;;;;5049350;28;1543;-68
2022/03/18 17:07:21;;;;;;;;;;;;;;;;;;5049627;28;1150;-68
2022/03/18 17:09:49;;;;;;;;;;;;;;;;;;5050041;28;813;-68
2022/03/18 17:12:18;;;;;;;;;;;;;;;;;;5049776;28;1325;-68
2022/03/18 17:14:45;;;;;;;;;;;;;;;;;;5049566;28;1102;-68
2022/03/18 17:17:12;;;;;;;;;;;;;;;;;;5049790;28;1082;-68
2022/03/18 17:19:38;;;;;;;;;;;;;;;;;;5049811;28;1914;-68
2022/03/18 17:22:04;;;;;;;;;;;;;;;;;;5049937;28;1087;-68
2022/03/18 17:24:31;;;;;;;;;;;;;;;;;;5049793;28;1418;-68
2022/03/18 17:26:59;;;;;;;;;;;;;;;;;;5049704;28;1078;-68
2022/03/18 17:29:25;;;;;;;;;;;;;;;;;;5052668;28;1005;-68
2022/03/18 17:31:53;;;;;;;;;;;;;;;;;;5052663;28;1531;-68
2022/03/18 17:34:20;;;;;;;;;;;;;;;;;;5051580;28;1665;-68
2022/03/18 17:36:46;;;;;;;;;;;;;;;;;;5050281;28;1527;-68